Time;durP1;ratioP1;P1;durP2;ratioP2;P2;SDS_P1;SDS_P2;PMS_P1;PMS_P2;Temp;Humidity;BMP_temperature;BMP_pressure;BME280_temperature;BME280_humidity;BME280_pressure;Samples;Min_cycle;Max_cycle;Signal;HPM_P1;HPM_P2
2022/02/23 00:00:51;;;;;;;9.70;8.50;;;;;;;;;;4973186;28;20046;-77
2022/02/23 00:03:18;;;;;;;10.88;8.85;;;;;;;;;;4973475;28;20490;-79
2022/02/23 00:05:44;;;;;;;10.23;9.23;;;;;;;;;;4973400;28;20038;-77
2022/02/23 00:08:10;;;;;;;10.98;9.85;;;;;;;;;;4973286;28;20035;-81
2022/02/23 00:10:36;;;;;;;12.98;10.23;;;;;;;;;;4974209;28;20034;-76
2022/02/23 00:13:02;;;;;;;10.88;9.88;;;;;;;;;;4977075;28;20038;-81
2022/02/23 00:15:28;;;;;;;11.13;8.80;;;;;;;;;;4977067;28;20033;-81
2022/02/23 00:17:55;;;;;;;10.68;9.13;;;;;;;;;;4977203;28;20034;-81
2022/02/23 00:20:21;;;;;;;10.02;9.10;;;;;;;;;;4976924;28;20063;-77
2022/02/23 00:22:48;;;;;;;9.98;9.00;;;;;;;;;;4977097;28;20470;-76
2022/02/23 00:25:14;;;;;;;11.82;10.23;;;;;;;;;;4976712;28;20038;-76
2022/02/23 00:27:40;;;;;;;10.00;9.13;;;;;;;;;;4992090;28;20537;-78
2022/02/23 00:30:06;;;;;;;8.93;8.13;;;;;;;;;;4976940;28;20031;-80
2022/02/23 00:32:32;;;;;;;10.10;7.78;;;;;;;;;;4976916;28;20062;-77
2022/02/23 00:34:59;;;;;;;8.30;7.43;;;;;;;;;;4976788;28;20478;-81
2022/02/23 00:37:25;;;;;;;10.07;8.60;;;;;;;;;;4976922;28;20029;-78
2022/02/23 00:39:51;;;;;;;10.00;9.00;;;;;;;;;;4977139;28;20034;-80
2022/02/23 00:42:17;;;;;;;8.38;7.55;;;;;;;;;;4991496;28;20033;-78
2022/02/23 00:44:43;;;;;;;10.30;7.60;;;;;;;;;;4976744;28;20541;-81
2022/02/23 00:47:12;;;;;;;8.57;7.78;;;;;;;;;;4976605;28;20541;-78
2022/02/23 00:49:39;;;;;;;7.40;6.70;;;;;;;;;;4976657;28;20023;-78
2022/02/23 00:52:08;;;;;;;8.52;7.45;;;;;;;;;;4976265;28;20027;-79
2022/02/23 00:54:35;;;;;;;8.60;7.80;;;;;;;;;;4976390;28;20026;-78
2022/02/23 00:57:02;;;;;;;7.82;7.13;;;;;;;;;;4976299;28;20113;-77
2022/02/23 00:59:31;;;;;;;8.43;7.63;;;;;;;;;;4976632;28;20030;-77
2022/02/23 01:01:57;;;;;;;9.38;7.07;;;;;;;;;;4976605;28;20038;-76
2022/02/23 01:04:23;;;;;;;8.23;7.45;;;;;;;;;;4976187;28;20042;-81
2022/02/23 01:06:49;;;;;;;7.88;6.78;;;;;;;;;;4976462;28;20027;-81
2022/02/23 01:09:15;;;;;;;8.65;7.63;;;;;;;;;;4986793;28;20030;-78
2022/02/23 01:11:41;;;;;;;8.35;7.53;;;;;;;;;;4994457;28;20109;-77
2022/02/23 01:14:08;;;;;;;6.90;6.20;;;;;;;;;;4995299;28;20037;-77
2022/02/23 01:16:35;;;;;;;7.90;7.13;;;;;;;;;;4995445;28;20430;-78
2022/02/23 01:19:01;;;;;;;8.75;7.80;;;;;;;;;;4995702;28;20030;-77
2022/02/23 01:21:28;;;;;;;6.10;5.50;;;;;;;;;;4995425;28;20034;-77
2022/02/23 01:23:54;;;;;;;9.10;6.38;;;;;;;;;;4995545;28;20030;-76
2022/02/23 01:26:20;;;;;;;7.68;6.97;;;;;;;;;;4995220;28;20034;-78
2022/02/23 01:28:47;;;;;;;8.27;7.47;;;;;;;;;;4994115;28;20354;-79
2022/02/23 01:31:13;;;;;;;8.48;6.70;;;;;;;;;;4995126;28;21164;-80
2022/02/23 01:33:39;;;;;;;7.82;7.13;;;;;;;;;;4995508;28;20436;-78
2022/02/23 01:36:05;;;;;;;7.68;6.97;;;;;;;;;;4995176;28;20133;-77
2022/02/23 01:38:32;;;;;;;15.25;6.88;;;;;;;;;;4995110;28;20401;-79
2022/02/23 01:40:58;;;;;;;7.25;6.50;;;;;;;;;;4995298;28;20069;-77
2022/02/23 01:43:24;;;;;;;7.55;6.85;;;;;;;;;;4994786;28;20074;-76
2022/02/23 01:45:50;;;;;;;8.18;7.43;;;;;;;;;;4995139;28;20397;-78
2022/02/23 01:48:16;;;;;;;7.30;6.60;;;;;;;;;;4994957;28;20057;-76
2022/02/23 01:50:43;;;;;;;8.43;7.65;;;;;;;;;;4995035;28;20030;-77
2022/02/23 01:53:09;;;;;;;7.03;6.43;;;;;;;;;;4995082;28;20540;-78
2022/02/23 01:55:38;;;;;;;7.63;6.80;;;;;;;;;;4994734;28;20492;-78
2022/02/23 01:58:04;;;;;;;6.97;6.38;;;;;;;;;;4994957;28;20033;-76
2022/02/23 02:00:30;;;;;;;7.97;7.10;;;;;;;;;;4994419;28;20027;-76
2022/02/23 02:02:56;;;;;;;8.18;6.65;;;;;;;;;;4993759;28;20049;-78
2022/02/23 02:05:23;;;;;;;7.50;6.80;;;;;;;;;;4994345;28;20113;-78
2022/02/23 02:07:49;;;;;;;6.60;5.93;;;;;;;;;;4991313;28;20466;-77
2022/02/23 02:10:16;;;;;;;8.00;7.03;;;;;;;;;;4984737;28;20030;-79
2022/02/23 02:12:43;;;;;;;5.35;4.85;;;;;;;;;;4984618;28;20133;-78
2022/02/23 02:15:10;;;;;;;6.63;5.97;;;;;;;;;;4983220;28;20039;-77
2022/02/23 02:17:36;;;;;;;6.85;6.25;;;;;;;;;;4984089;28;20466;-81
2022/02/23 02:20:07;;;;;;;6.00;5.32;;;;;;;;;;4985720;28;20493;-77
2022/02/23 02:22:33;;;;;;;8.05;5.72;;;;;;;;;;4983094;28;20449;-76
2022/02/23 02:25:00;;;;;;;4.95;4.40;;;;;;;;;;4983751;28;20035;-78
2022/02/23 02:27:26;;;;;;;6.88;5.78;;;;;;;;;;4982707;28;20413;-78
2022/02/23 02:29:53;;;;;;;6.38;5.78;;;;;;;;;;4984443;28;20061;-76
2022/02/23 02:32:19;;;;;;;7.82;5.95;;;;;;;;;;4983847;28;20163;-78
2022/02/23 02:34:46;;;;;;;7.13;6.28;;;;;;;;;;4982129;28;20031;-79
2022/02/23 02:37:14;;;;;;;7.03;6.32;;;;;;;;;;4984508;28;20018;-79
2022/02/23 02:39:40;;;;;;;8.20;6.13;;;;;;;;;;4977043;28;20038;-79
2022/02/23 02:42:06;;;;;;;9.80;7.03;;;;;;;;;;4974644;28;20486;-79
2022/02/23 02:44:33;;;;;;;6.70;5.78;;;;;;;;;;5004605;28;20124;-82
2022/02/23 02:46:59;;;;;;;7.03;5.85;;;;;;;;;;4994059;28;20026;-75
2022/02/23 02:49:25;;;;;;;7.38;6.55;;;;;;;;;;4992425;28;20033;-78
2022/02/23 02:51:51;;;;;;;10.55;7.05;;;;;;;;;;4993807;28;20057;-81
2022/02/23 02:54:17;;;;;;;7.45;6.68;;;;;;;;;;4993807;28;20482;-77
2022/02/23 02:56:44;;;;;;;7.50;6.75;;;;;;;;;;4993359;28;20026;-80
2022/02/23 02:59:10;;;;;;;7.82;6.20;;;;;;;;;;4992948;28;20034;-77
2022/02/23 03:01:37;;;;;;;9.25;6.10;;;;;;;;;;4993432;28;20030;-76
2022/02/23 03:04:04;;;;;;;8.80;6.25;;;;;;;;;;4993884;28;20474;-76
2022/02/23 03:06:30;;;;;;;7.60;5.43;;;;;;;;;;4993637;28;20038;-76
2022/02/23 03:08:57;;;;;;;7.78;6.20;;;;;;;;;;4993477;28;20045;-78
2022/02/23 03:11:24;;;;;;;7.03;6.32;;;;;;;;;;4993541;28;20026;-78
2022/02/23 03:13:51;;;;;;;7.30;6.07;;;;;;;;;;4993254;28;20038;-78
2022/02/23 03:16:18;;;;;;;8.02;5.80;;;;;;;;;;4993481;28;20026;-76
2022/02/23 03:18:44;;;;;;;7.38;4.70;;;;;;;;;;4992999;28;20022;-77
2022/02/23 03:21:10;;;;;;;8.35;6.10;;;;;;;;;;4993280;28;20500;-77
2022/02/23 03:23:38;;;;;;;8.35;5.60;;;;;;;;;;4993112;28;20030;-78
2022/02/23 03:26:05;;;;;;;9.35;6.60;;;;;;;;;;4993281;28;20367;-79
2022/02/23 03:28:32;;;;;;;6.90;5.90;;;;;;;;;;4993123;28;20039;-77
2022/02/23 03:30:58;;;;;;;4.57;4.18;;;;;;;;;;4984315;28;20390;-79
2022/02/23 03:33:25;;;;;;;7.38;6.20;;;;;;;;;;4983832;28;20030;-79
2022/02/23 03:35:51;;;;;;;6.32;5.53;;;;;;;;;;4997620;28;20379;-76
2022/02/23 03:38:17;;;;;;;8.23;6.32;;;;;;;;;;4981119;28;20025;-77
2022/02/23 03:40:46;;;;;;;6.45;5.63;;;;;;;;;;4983443;28;20022;-77
2022/02/23 03:43:16;;;;;;;6.38;5.78;;;;;;;;;;4985469;28;20092;-78
2022/02/23 03:45:42;;;;;;;5.38;4.60;;;;;;;;;;4992037;28;20050;-79
2022/02/23 03:48:08;;;;;;;7.72;6.25;;;;;;;;;;4992011;28;20426;-78
2022/02/23 03:50:34;;;;;;;7.55;6.15;;;;;;;;;;4992833;28;20031;-76
2022/02/23 03:53:00;;;;;;;8.48;6.32;;;;;;;;;;4992913;28;20031;-77
2022/02/23 03:55:27;;;;;;;7.88;6.82;;;;;;;;;;4992935;28;20030;-77
2022/02/23 03:57:53;;;;;;;6.82;5.57;;;;;;;;;;4992648;28;20072;-80
2022/02/23 04:00:19;;;;;;;8.27;6.57;;;;;;;;;;4993131;28;20042;-77
2022/02/23 04:02:45;;;;;;;6.35;5.50;;;;;;;;;;4992819;28;20390;-79
2022/02/23 04:05:12;;;;;;;6.53;5.55;;;;;;;;;;4992898;28;20049;-80
2022/02/23 04:07:38;;;;;;;9.55;5.82;;;;;;;;;;4991676;28;20449;-79
2022/02/23 04:10:05;;;;;;;7.43;6.72;;;;;;;;;;4992811;28;20042;-77
2022/02/23 04:12:31;;;;;;;8.27;6.20;;;;;;;;;;4992854;28;20030;-78
2022/02/23 04:14:58;;;;;;;7.60;6.55;;;;;;;;;;4992777;28;20112;-78
2022/02/23 04:17:24;;;;;;;9.63;8.00;;;;;;;;;;4992623;28;20030;-77
2022/02/23 04:19:50;;;;;;;7.75;5.22;;;;;;;;;;4992514;28;20463;-78
2022/02/23 04:22:16;;;;;;;10.13;6.18;;;;;;;;;;4992884;28;20039;-77
2022/02/23 04:24:43;;;;;;;8.52;7.53;;;;;;;;;;4992624;28;20596;-81
2022/02/23 04:27:09;;;;;;;7.65;6.07;;;;;;;;;;4992967;28;20038;-82
2022/02/23 04:29:35;;;;;;;11.00;7.30;;;;;;;;;;4991491;28;20030;-80
2022/02/23 04:32:01;;;;;;;9.30;6.82;;;;;;;;;;4992418;28;20061;-80
2022/02/23 04:34:27;;;;;;;6.78;6.00;;;;;;;;;;4992593;28;20472;-78
2022/02/23 04:36:53;;;;;;;7.68;6.75;;;;;;;;;;4992623;28;20469;-78
2022/02/23 04:39:20;;;;;;;7.75;6.28;;;;;;;;;;4991464;28;20122;-80
2022/02/23 04:41:46;;;;;;;9.55;7.18;;;;;;;;;;4992473;28;20105;-79
2022/02/23 04:44:12;;;;;;;8.52;6.60;;;;;;;;;;4992407;28;20023;-79
2022/02/23 04:46:38;;;;;;;8.70;5.97;;;;;;;;;;4992484;28;20031;-79
2022/02/23 04:49:05;;;;;;;7.10;6.45;;;;;;;;;;4992649;28;20038;-78
2022/02/23 04:51:31;;;;;;;7.03;5.75;;;;;;;;;;4992314;28;20034;-83
2022/02/23 04:53:58;;;;;;;6.65;5.35;;;;;;;;;;4992569;28;20470;-80
2022/02/23 04:56:24;;;;;;;9.00;6.63;;;;;;;;;;4992588;28;20033;-82
2022/02/23 04:58:50;;;;;;;8.40;6.45;;;;;;;;;;4996110;28;20478;-79
2022/02/23 05:01:16;;;;;;;8.82;7.13;;;;;;;;;;4994487;28;20026;-78
2022/02/23 05:03:44;;;;;;;7.50;6.25;;;;;;;;;;4995413;28;20462;-77
2022/02/23 05:06:10;;;;;;;9.70;6.85;;;;;;;;;;4994880;28;20470;-79
2022/02/23 05:08:36;;;;;;;7.45;5.93;;;;;;;;;;4993057;28;20030;-78
2022/02/23 05:11:02;;;;;;;10.80;7.03;;;;;;;;;;4995191;28;20033;-77
2022/02/23 05:13:32;;;;;;;9.57;7.15;;;;;;;;;;4995338;28;20029;-77
2022/02/23 05:15:59;;;;;;;10.00;6.95;;;;;;;;;;4994458;28;20382;-78
2022/02/23 05:18:29;;;;;;;9.98;7.65;;;;;;;;;;4995314;28;20036;-77
2022/02/23 05:20:55;;;;;;;7.78;6.47;;;;;;;;;;4995493;28;20489;-81
2022/02/23 05:23:22;;;;;;;8.85;6.93;;;;;;;;;;4995391;28;20115;-78
2022/02/23 05:25:48;;;;;;;8.85;6.57;;;;;;;;;;4995331;28;20036;-76
2022/02/23 05:28:15;;;;;;;9.18;7.63;;;;;;;;;;4995389;28;20027;-80
2022/02/23 05:30:41;;;;;;;8.63;7.03;;;;;;;;;;4995340;28;20027;-77
2022/02/23 05:33:07;;;;;;;8.20;6.40;;;;;;;;;;4995058;28;20054;-77
2022/02/23 05:35:33;;;;;;;8.23;7.43;;;;;;;;;;4995375;28;20027;-78
2022/02/23 05:37:59;;;;;;;6.05;5.45;;;;;;;;;;4995447;28;20500;-77
2022/02/23 05:40:26;;;;;;;7.50;6.75;;;;;;;;;;4993673;28;20031;-77
2022/02/23 05:42:54;;;;;;;10.25;8.07;;;;;;;;;;4994803;28;20030;-77
2022/02/23 05:45:21;;;;;;;12.45;9.68;;;;;;;;;;4995107;28;20030;-78
2022/02/23 05:47:47;;;;;;;12.60;8.77;;;;;;;;;;4995040;28;20026;-78
2022/02/23 05:50:13;;;;;;;8.10;5.47;;;;;;;;;;4994915;28;20513;-78
2022/02/23 05:52:39;;;;;;;8.80;7.65;;;;;;;;;;4994603;28;20034;-79
2022/02/23 05:55:06;;;;;;;9.90;8.40;;;;;;;;;;4995093;28;20062;-77
2022/02/23 05:57:32;;;;;;;10.15;7.57;;;;;;;;;;4994810;28;20037;-77
2022/02/23 05:59:58;;;;;;;8.95;7.65;;;;;;;;;;4993434;28;20026;-77
2022/02/23 06:02:24;;;;;;;8.20;7.30;;;;;;;;;;4994461;28;20022;-83
2022/02/23 06:04:51;;;;;;;10.10;8.98;;;;;;;;;;4994562;28;20030;-79
2022/02/23 06:07:17;;;;;;;8.20;7.13;;;;;;;;;;4994611;28;20027;-80
2022/02/23 06:09:43;;;;;;;11.98;8.80;;;;;;;;;;4993703;28;20027;-83
2022/02/23 06:12:09;;;;;;;11.38;9.35;;;;;;;;;;4994371;28;20030;-79
2022/02/23 06:14:35;;;;;;;9.82;8.82;;;;;;;;;;4992891;28;20493;-77
2022/02/23 06:17:01;;;;;;;10.05;8.27;;;;;;;;;;4992431;28;20026;-76
2022/02/23 06:19:28;;;;;;;9.65;8.55;;;;;;;;;;4993872;28;20033;-79
2022/02/23 06:21:54;;;;;;;10.45;9.38;;;;;;;;;;4994047;28;20038;-77
2022/02/23 06:24:20;;;;;;;11.48;7.75;;;;;;;;;;4992759;28;20113;-77
2022/02/23 06:26:46;;;;;;;9.50;7.93;;;;;;;;;;4992006;28;20026;-81
2022/02/23 06:29:12;;;;;;;10.32;9.13;;;;;;;;;;4993186;28;20077;-78
2022/02/23 06:31:38;;;;;;;10.88;8.70;;;;;;;;;;4991441;28;20060;-80
2022/02/23 06:34:05;;;;;;;11.35;8.95;;;;;;;;;;4989441;28;20026;-80
2022/02/23 06:36:31;;;;;;;9.73;7.45;;;;;;;;;;4993046;28;20022;-78
2022/02/23 06:38:57;;;;;;;7.63;6.85;;;;;;;;;;4993959;28;20028;-80
2022/02/23 06:41:26;;;;;;;11.15;9.07;;;;;;;;;;5000327;28;20026;-76
2022/02/23 06:43:53;;;;;;;9.27;8.35;;;;;;;;;;4979216;28;20054;-78
2022/02/23 06:46:20;;;;;;;9.18;7.50;;;;;;;;;;4974654;28;20473;-79
2022/02/23 06:48:47;;;;;;;10.57;8.38;;;;;;;;;;4983344;28;20062;-82
2022/02/23 06:51:18;;;;;;;9.15;7.07;;;;;;;;;;4993467;28;20030;-82
2022/02/23 06:53:44;;;;;;;9.52;8.63;;;;;;;;;;4993169;28;20070;-79
2022/02/23 06:56:10;;;;;;;8.30;7.50;;;;;;;;;;4993489;28;20105;-79
2022/02/23 06:58:46;;;;;;;10.65;9.25;;;;;;;;;;4985235;28;20435;-77
2022/02/23 07:01:14;;;;;;;8.95;8.05;;;;;;;;;;4974159;28;20031;-77
2022/02/23 07:03:41;;;;;;;10.98;8.27;;;;;;;;;;4973960;28;20090;-75
2022/02/23 07:06:08;;;;;;;9.05;6.38;;;;;;;;;;4973425;28;20049;-78
2022/02/23 07:08:34;;;;;;;8.93;8.02;;;;;;;;;;4979623;28;20022;-79
2022/02/23 07:11:00;;;;;;;10.00;7.32;;;;;;;;;;4993189;28;20034;-80
2022/02/23 07:13:26;;;;;;;9.75;7.40;;;;;;;;;;4993253;28;20026;-78
2022/02/23 07:15:52;;;;;;;11.35;7.57;;;;;;;;;;4992690;28;20041;-77
2022/02/23 07:18:19;;;;;;;9.82;6.63;;;;;;;;;;4986725;28;20050;-79
2022/02/23 07:20:45;;;;;;;9.82;8.55;;;;;;;;;;4972378;28;20118;-78
2022/02/23 07:23:11;;;;;;;7.95;7.03;;;;;;;;;;4971652;28;20023;-79
2022/02/23 07:25:37;;;;;;;13.80;9.52;;;;;;;;;;4972275;28;20130;-77
2022/02/23 07:28:05;;;;;;;11.30;8.98;;;;;;;;;;4973864;28;20054;-77
2022/02/23 07:30:31;;;;;;;10.70;8.85;;;;;;;;;;4992511;28;20041;-75
2022/02/23 07:32:57;;;;;;;7.80;7.00;;;;;;;;;;4992612;28;20073;-81
2022/02/23 07:35:24;;;;;;;10.63;8.32;;;;;;;;;;4992598;28;20105;-81
2022/02/23 07:37:52;;;;;;;8.40;7.65;;;;;;;;;;4991903;28;20038;-80
2022/02/23 07:40:20;;;;;;;10.90;8.82;;;;;;;;;;4992274;28;20383;-77
2022/02/23 07:42:47;;;;;;;9.38;7.20;;;;;;;;;;4992141;28;20035;-77
2022/02/23 07:45:13;;;;;;;11.63;9.57;;;;;;;;;;4991239;28;20481;-80
2022/02/23 07:47:39;;;;;;;12.20;7.78;;;;;;;;;;4992338;28;20026;-75
2022/02/23 07:50:09;;;;;;;9.13;8.00;;;;;;;;;;4992336;28;20385;-79
2022/02/23 07:52:36;;;;;;;9.43;7.40;;;;;;;;;;4992035;28;20070;-79
2022/02/23 07:55:02;;;;;;;12.77;8.60;;;;;;;;;;4991605;28;20039;-79
2022/02/23 07:57:28;;;;;;;12.25;10.20;;;;;;;;;;4992595;28;20030;-78
2022/02/23 07:59:55;;;;;;;8.98;7.88;;;;;;;;;;4988375;28;20022;-78
2022/02/23 08:02:21;;;;;;;11.05;7.97;;;;;;;;;;4990567;28;20121;-77
2022/02/23 08:04:52;;;;;;;11.15;9.32;;;;;;;;;;4991599;28;20445;-79
2022/02/23 08:07:20;;;;;;;10.57;7.07;;;;;;;;;;4991379;28;20030;-79
2022/02/23 08:09:46;;;;;;;7.15;5.82;;;;;;;;;;4990308;28;20026;-81
2022/02/23 08:12:12;;;;;;;8.10;6.63;;;;;;;;;;4986229;28;20081;-77
2022/02/23 08:14:39;;;;;;;11.25;8.35;;;;;;;;;;4991275;28;20022;-79
2022/02/23 08:19:51;;;;;;;11.93;7.53;;;;;;;;;;4991312;28;20129;-82
2022/02/23 08:22:17;;;;;;;10.45;8.38;;;;;;;;;;4987544;28;20046;-81
2022/02/23 08:24:44;;;;;;;9.63;8.25;;;;;;;;;;4989828;28;20030;-77
2022/02/23 08:27:12;;;;;;;10.63;7.85;;;;;;;;;;4990596;28;20118;-79
2022/02/23 08:29:38;;;;;;;11.40;7.90;;;;;;;;;;4991341;28;20529;-78
2022/02/23 08:32:05;;;;;;;10.75;7.78;;;;;;;;;;4991322;28;20089;-79
2022/02/23 08:34:32;;;;;;;12.57;9.57;;;;;;;;;;4994473;28;20030;-78
2022/02/23 08:36:58;;;;;;;9.32;8.43;;;;;;;;;;4994171;28;20045;-77
2022/02/23 08:39:24;;;;;;;11.25;8.32;;;;;;;;;;4995046;28;20081;-77
2022/02/23 08:41:50;;;;;;;7.72;5.82;;;;;;;;;;4994328;28;20068;-81
2022/02/23 08:44:16;;;;;;;9.70;7.60;;;;;;;;;;4995010;28;20077;-78
2022/02/23 08:46:43;;;;;;;10.27;7.57;;;;;;;;;;4994587;28;20034;-77
2022/02/23 08:49:10;;;;;;;13.18;8.88;;;;;;;;;;4993609;28;20041;-77
2022/02/23 08:51:37;;;;;;;10.10;8.52;;;;;;;;;;4992922;28;20137;-78
2022/02/23 08:54:04;;;;;;;9.00;7.70;;;;;;;;;;4994604;28;20037;-76
2022/02/23 08:56:30;;;;;;;11.57;8.27;;;;;;;;;;4994465;28;20027;-77
2022/02/23 08:58:56;;;;;;;10.07;7.47;;;;;;;;;;4994293;28;20080;-78
2022/02/23 09:01:25;;;;;;;8.63;6.53;;;;;;;;;;4990717;28;20085;-78
2022/02/23 09:03:57;;;;;;;11.23;7.80;;;;;;;;;;4992669;28;20041;-76
2022/02/23 09:06:24;;;;;;;9.43;6.63;;;;;;;;;;4992898;28;20695;-76
2022/02/23 09:08:51;;;;;;;10.13;8.15;;;;;;;;;;4991524;28;20676;-84
2022/02/23 09:11:17;;;;;;;9.82;8.10;;;;;;;;;;4987951;28;20041;-78
2022/02/23 09:13:43;;;;;;;10.40;7.78;;;;;;;;;;4974290;28;20157;-79
2022/02/23 09:16:09;;;;;;;7.05;6.35;;;;;;;;;;4974507;28;20027;-77
2022/02/23 09:18:35;;;;;;;10.15;8.02;;;;;;;;;;4974473;28;20447;-76
2022/02/23 09:21:01;;;;;;;9.50;8.50;;;;;;;;;;4977900;28;20040;-78
2022/02/23 09:23:28;;;;;;;11.32;8.05;;;;;;;;;;4993763;28;20401;-78
2022/02/23 09:25:55;;;;;;;13.07;10.20;;;;;;;;;;4994218;28;20093;-77
2022/02/23 09:28:21;;;;;;;13.40;11.75;;;;;;;;;;4993878;28;20034;-76
2022/02/23 09:30:48;;;;;;;8.18;6.68;;;;;;;;;;4993684;28;20062;-77
2022/02/23 09:33:14;;;;;;;8.07;6.88;;;;;;;;;;4993148;28;20058;-78
2022/02/23 09:48:17;;;;;;;10.07;7.50;;;;;;;;;;5107981;27;21375;-80
2022/02/23 09:50:43;;;;;;;7.63;6.22;;;;;;;;;;5107850;28;20442;-77
2022/02/23 09:53:10;;;;;;;9.75;7.45;;;;;;;;;;5109274;28;20028;-79
2022/02/23 09:55:36;;;;;;;8.23;6.60;;;;;;;;;;5108545;28;20494;-77
2022/02/23 09:58:02;;;;;;;7.90;6.93;;;;;;;;;;5107715;28;20038;-77
2022/02/23 10:00:34;;;;;;;7.35;5.85;;;;;;;;;;5107944;28;20036;-78
2022/02/23 10:03:00;;;;;;;8.20;6.80;;;;;;;;;;5099490;28;20123;-74
2022/02/23 10:05:27;;;;;;;7.82;6.25;;;;;;;;;;5188513;22;20049;-81
2022/02/23 10:08:06;;;;;;;7.57;5.65;;;;;;;;;;5030059;28;20108;-82
2022/02/23 10:10:33;;;;;;;8.25;5.65;;;;;;;;;;5028952;28;20045;-82
2022/02/23 10:13:03;;;;;;;7.13;5.35;;;;;;;;;;5028712;28;20022;-82
2022/02/23 10:15:29;;;;;;;8.93;6.88;;;;;;;;;;5027256;28;20092;-83
2022/02/23 10:17:55;;;;;;;11.18;7.82;;;;;;;;;;5026752;28;20063;-80
2022/02/23 10:20:22;;;;;;;9.20;6.85;;;;;;;;;;5025638;28;20056;-80
2022/02/23 10:22:49;;;;;;;9.50;6.90;;;;;;;;;;5027476;28;20500;-79
2022/02/23 10:25:21;;;;;;;7.97;6.50;;;;;;;;;;5019520;28;20425;-80
2022/02/23 10:27:47;;;;;;;8.40;6.35;;;;;;;;;;5007664;28;20030;-80
2022/02/23 10:30:26;;;;;;;9.85;6.60;;;;;;;;;;5007456;28;20034;-78
2022/02/23 10:32:54;;;;;;;10.18;7.28;;;;;;;;;;5007918;28;20576;-79
2022/02/23 10:35:29;;;;;;;11.35;6.40;;;;;;;;;;5012600;28;20026;-79
2022/02/23 10:37:56;;;;;;;9.73;6.63;;;;;;;;;;5027463;28;20500;-82
2022/02/23 10:40:23;;;;;;;9.13;6.43;;;;;;;;;;5026914;28;20048;-82
2022/02/23 10:42:50;;;;;;;6.75;5.63;;;;;;;;;;5039943;28;20029;-80
2022/02/23 10:45:20;;;;;;;10.00;5.28;;;;;;;;;;5040000;28;20054;-82
2022/02/23 10:47:47;;;;;;;9.07;5.95;;;;;;;;;;5022339;28;20022;-80
2022/02/23 10:50:15;;;;;;;8.23;6.05;;;;;;;;;;5013659;28;20057;-77
2022/02/23 10:52:42;;;;;;;8.85;6.47;;;;;;;;;;5012844;28;20095;-79
2022/02/23 10:55:14;;;;;;;9.90;5.53;;;;;;;;;;4999875;28;20034;-79
2022/02/23 10:57:44;;;;;;;5.93;5.28;;;;;;;;;;5013863;28;20042;-83
2022/02/23 11:00:29;;;;;;;7.30;4.90;;;;;;;;;;5010580;28;20061;-80
2022/02/23 11:02:55;;;;;;;6.35;3.90;;;;;;;;;;5012235;28;20025;-80
2022/02/23 11:05:25;;;;;;;9.35;7.43;;;;;;;;;;4995733;28;20073;-81
2022/02/23 11:07:52;;;;;;;8.10;4.65;;;;;;;;;;4999846;28;20061;-78
2022/02/23 11:10:19;;;;;;;6.78;4.85;;;;;;;;;;5012863;28;20045;-82
2022/02/23 11:12:46;;;;;;;7.05;5.38;;;;;;;;;;5013227;28;20515;-82
2022/02/23 11:15:13;;;;;;;7.53;5.82;;;;;;;;;;5012997;28;20050;-81
2022/02/23 11:17:40;;;;;;;6.32;4.70;;;;;;;;;;5012760;28;20037;-83
2022/02/23 11:20:07;;;;;;;6.85;5.22;;;;;;;;;;5012604;28;20026;-79
2022/02/23 11:22:33;;;;;;;10.10;5.55;;;;;;;;;;5012687;28;20029;-83
2022/02/23 11:25:02;;;;;;;8.70;5.70;;;;;;;;;;4996469;28;20042;-81
2022/02/23 11:27:31;;;;;;;10.30;5.15;;;;;;;;;;4993596;28;20034;-84
2022/02/23 11:30:05;;;;;;;8.75;4.88;;;;;;;;;;4993470;28;20034;-83
2022/02/23 11:32:31;;;;;;;5.97;4.28;;;;;;;;;;4993291;28;20501;-80
2022/02/23 11:34:57;;;;;;;6.82;4.50;;;;;;;;;;5005429;28;20117;-82
2022/02/23 11:37:24;;;;;;;5.95;3.60;;;;;;;;;;5002718;28;20042;-82
2022/02/23 11:39:53;;;;;;;9.38;5.53;;;;;;;;;;5025965;28;20038;-83
2022/02/23 11:42:22;;;;;;;7.57;3.67;;;;;;;;;;5012438;28;20049;-79
2022/02/23 11:44:50;;;;;;;5.97;3.97;;;;;;;;;;5009679;28;20448;-81
2022/02/23 11:47:18;;;;;;;6.75;4.28;;;;;;;;;;5011299;28;20030;-81
2022/02/23 11:50:02;;;;;;;4.53;3.72;;;;;;;;;;5010778;28;20033;-81
2022/02/23 11:52:31;;;;;;;;;;;;;;;;;;5012634;28;20025;-84
2022/02/23 11:55:12;;;;;;;6.10;3.50;;;;;;;;;;5011771;28;20060;-82
2022/02/23 11:57:40;;;;;;;6.85;5.50;;;;;;;;;;5011446;28;20110;-82
2022/02/23 12:00:08;;;;;;;6.90;4.65;;;;;;;;;;5010689;28;20418;-82
2022/02/23 12:02:34;;;;;;;6.32;4.15;;;;;;;;;;5012159;28;20029;-83
2022/02/23 12:05:00;;;;;;;5.88;4.15;;;;;;;;;;5011535;28;20050;-82
2022/02/23 12:07:36;;;;;;;6.03;4.18;;;;;;;;;;5011271;28;20476;-80
2022/02/23 12:10:04;;;;;;;8.63;5.10;;;;;;;;;;5010308;28;20468;-80
2022/02/23 12:12:34;;;;;;;7.00;5.10;;;;;;;;;;5011741;28;20030;-81
2022/02/23 12:15:03;;;;;;;8.80;5.70;;;;;;;;;;5008076;28;20033;-81
2022/02/23 12:17:51;;;;;;;5.30;3.45;;;;;;;;;;5008744;28;20473;-81
2022/02/23 12:20:35;;;;;;;5.68;3.80;;;;;;;;;;5005688;28;20077;-79
2022/02/23 12:23:19;;;;;;;10.82;6.90;;;;;;;;;;5014956;28;20033;-81
2022/02/23 12:25:49;;;;;;;8.40;4.75;;;;;;;;;;5017507;28;20048;-80
2022/02/23 12:28:36;;;;;;;7.70;4.60;;;;;;;;;;5009198;28;20052;-84
2022/02/23 12:31:06;;;;;;;8.40;5.32;;;;;;;;;;5011366;28;20083;-84
2022/02/23 12:33:33;;;;;;;7.50;4.38;;;;;;;;;;5010179;28;20542;-82
2022/02/23 12:36:03;;;;;;;7.53;4.28;;;;;;;;;;5011519;28;20745;-84
2022/02/23 12:38:30;;;;;;;7.93;4.85;;;;;;;;;;5012040;28;20038;-81
2022/02/23 12:41:03;;;;;;;6.35;3.28;;;;;;;;;;5017600;28;20041;-80
2022/02/23 12:43:29;;;;;;;9.57;4.38;;;;;;;;;;5012749;28;20078;-82
2022/02/23 12:45:59;;;;;;;9.57;5.70;;;;;;;;;;5012233;28;20025;-85
2022/02/23 12:48:30;;;;;;;8.82;5.93;;;;;;;;;;5017688;28;20033;-82
2022/02/23 12:50:57;;;;;;;8.50;6.13;;;;;;;;;;5011287;28;20034;-81
2022/02/23 12:53:33;;;;;;;8.25;4.43;;;;;;;;;;5010728;28;20469;-80
2022/02/23 12:56:16;;;;;;;6.93;4.80;;;;;;;;;;5011229;28;20457;-79
2022/02/23 12:58:42;;;;;;;7.53;3.47;;;;;;;;;;5012503;28;20026;-78
2022/02/23 13:01:16;;;;;;;5.68;3.80;;;;;;;;;;5010814;28;20034;-81
2022/02/23 13:03:43;;;;;;;5.85;3.42;;;;;;;;;;5010536;28;20069;-81
2022/02/23 13:06:09;;;;;;;7.57;3.53;;;;;;;;;;5011358;28;20112;-80
2022/02/23 13:08:35;;;;;;;3.75;2.15;;;;;;;;;;5014485;28;20026;-84
2022/02/23 13:11:02;;;;;;;6.88;4.18;;;;;;;;;;5014505;28;20412;-83
2022/02/23 13:13:39;;;;;;;10.27;5.38;;;;;;;;;;5013974;28;20080;-84
2022/02/23 13:16:06;;;;;;;6.30;2.67;;;;;;;;;;5011371;28;20059;-78
2022/02/23 13:18:35;;;;;;;8.30;3.80;;;;;;;;;;5011688;28;20022;-80
2022/02/23 13:21:19;;;;;;;5.85;3.20;;;;;;;;;;5012197;28;20503;-80
2022/02/23 13:24:04;;;;;;;6.05;3.83;;;;;;;;;;5012577;28;20025;-81
2022/02/23 13:26:31;;;;;;;5.72;3.53;;;;;;;;;;5012320;28;20032;-77
2022/02/23 13:29:00;;;;;;;6.50;3.50;;;;;;;;;;5011972;28;20053;-81
2022/02/23 13:31:35;;;;;;;4.13;2.40;;;;;;;;;;5012046;28;20120;-80
2022/02/23 13:34:20;;;;;;;5.75;3.53;;;;;;;;;;5012605;28;20041;-82
2022/02/23 13:36:46;;;;;;;;;;;;;;;;;;5013041;28;20076;-81
2022/02/23 13:39:22;;;;;;;4.95;3.08;;;;;;;;;;5009481;28;19913;-79
2022/02/23 13:41:51;;;;;;;4.93;3.65;;;;;;;;;;5009520;28;20477;-80
2022/02/23 13:44:36;;;;;;;6.55;4.40;;;;;;;;;;5010058;28;20025;-80
2022/02/23 13:47:12;;;;;;;;;;;;;;;;;;5010596;28;20069;-84
2022/02/23 13:49:58;;;;;;;5.18;2.65;;;;;;;;;;5010115;28;19967;-79
2022/02/23 13:52:24;;;;;;;6.75;3.75;;;;;;;;;;5007643;28;20036;-81
2022/02/23 13:55:12;;;;;;;9.88;4.80;;;;;;;;;;5011548;28;20029;-80
2022/02/23 13:57:57;;;;;;;7.57;3.70;;;;;;;;;;5000109;28;20396;-82
2022/02/23 14:00:34;;;;;;;6.00;3.97;;;;;;;;;;5012059;28;20026;-81
2022/02/23 14:03:11;;;;;;;5.10;2.50;;;;;;;;;;5010592;28;20435;-81
2022/02/23 14:05:38;;;;;;;10.52;4.63;;;;;;;;;;5011658;28;20057;-79
2022/02/23 14:08:09;;;;;;;22.95;11.88;;;;;;;;;;5011942;28;20033;-81
2022/02/23 14:10:36;;;;;;;15.00;6.82;;;;;;;;;;5011256;28;20034;-79
2022/02/23 14:13:08;;;;;;;6.85;3.75;;;;;;;;;;5011968;28;20030;-82
2022/02/23 14:15:36;;;;;;;8.05;4.97;;;;;;;;;;5011786;28;20030;-82
2022/02/23 14:18:20;;;;;;;8.55;4.68;;;;;;;;;;5011707;28;20057;-81
2022/02/23 14:20:46;;;;;;;;;;;;;;;;;;5012547;28;20472;-80
2022/02/23 14:23:20;;;;;;;6.47;4.00;;;;;;;;;;5015799;28;19909;-82
2022/02/23 14:25:56;;;;;;;7.20;4.53;;;;;;;;;;5018219;28;20476;-80
2022/02/23 14:28:29;;;;;;;6.88;3.63;;;;;;;;;;5027017;28;20053;-84
2022/02/23 14:30:57;;;;;;;14.43;8.80;;;;;;;;;;5014797;28;20034;-82
2022/02/23 14:33:30;;;;;;;7.75;3.90;;;;;;;;;;5014552;28;20068;-83
2022/02/23 14:35:56;;;;;;;7.22;5.25;;;;;;;;;;5015467;28;20032;-82
2022/02/23 14:38:22;;;;;;;9.32;5.13;;;;;;;;;;5015450;28;20380;-81
2022/02/23 14:40:49;;;;;;;15.52;9.85;;;;;;;;;;5015687;28;20061;-80
2022/02/23 14:43:15;;;;;;;9.98;7.38;;;;;;;;;;5015937;28;20097;-80
2022/02/23 14:45:43;;;;;;;7.18;3.95;;;;;;;;;;5014443;28;20032;-80
2022/02/23 14:48:09;;;;;;;9.65;4.47;;;;;;;;;;5014244;28;20034;-80
2022/02/23 14:50:35;;;;;;;6.97;4.03;;;;;;;;;;5015587;28;20056;-84
2022/02/23 14:53:01;;;;;;;6.25;3.67;;;;;;;;;;5015498;28;20025;-82
2022/02/23 14:55:31;;;;;;;8.43;6.25;;;;;;;;;;5015468;28;20029;-82
2022/02/23 14:57:57;;;;;;;13.68;9.35;;;;;;;;;;5023780;28;20120;-80
2022/02/23 15:00:24;;;;;;;9.88;7.35;;;;;;;;;;5034643;28;20022;-82